Time,TemperatureF,DewpointF,PressureIn,WindDirection,WindDirectionDegrees,WindSpeedMPH,WindSpeedGustMPH,Humidity,HourlyPrecipIn,Conditions,Clouds,dailyrainin,SoftwareType,DateUTC
2013-08-23 00:22:00,72.0,57.0,29.87,North,0,0.0,-999.0,60,-99.99,,,-99.99,,2013-08-23 07:22:00,
2013-08-23 00:32:00,72.0,57.0,29.87,North,0,0.0,-999.0,60,-99.99,,,-99.99,,2013-08-23 07:32:00,
2013-08-23 00:52:00,72.0,57.0,29.86,WNW,300,3.0,-999.0,60,-99.99,,,-99.99,,2013-08-23 07:52:00,
2013-08-23 01:22:00,72.0,59.0,29.86,West,270,5.0,-999.0,64,0.02,,,-99.99,,2013-08-23 08:22:00,
2013-08-23 01:32:00,72.0,59.0,29.86,West,270,5.0,-999.0,64,0.02,,,-99.99,,2013-08-23 08:32:00,
2013-08-23 01:52:00,72.0,59.0,29.86,West,270,6.0,-999.0,64,0.02,,,-99.99,,2013-08-23 08:52:00,
2013-08-23 02:21:00,72.0,59.0,29.86,West,280,3.0,-999.0,64,-99.99,,,-99.99,,2013-08-23 09:21:00,
2013-08-23 02:33:00,72.0,59.0,29.86,West,280,3.0,-999.0,64,-99.99,,,-99.99,,2013-08-23 09:33:00,
2013-08-23 02:53:00,72.0,59.0,29.87,WNW,300,7.0,-999.0,64,-99.99,,,-99.99,,2013-08-23 09:53:00,
2013-08-23 03:22:00,68.0,61.0,29.88,WNW,290,8.0,-999.0,77,0.03,,,-99.99,,2013-08-23 10:22:00,
2013-08-23 03:32:00,68.0,61.0,29.88,WNW,290,8.0,-999.0,77,0.03,,,-99.99,,2013-08-23 10:32:00,
2013-08-23 03:52:00,68.0,61.0,29.87,West,280,7.0,16.0,77,0.03,,,-99.99,,2013-08-23 10:52:00,
2013-08-23 04:22:00,66.0,61.0,29.85,WNW,300,8.0,16.0,82,0.04,,,-99.99,,2013-08-23 11:22:00,
2013-08-23 04:33:00,66.0,61.0,29.85,WNW,300,8.0,16.0,82,0.04,,,-99.99,,2013-08-23 11:33:00,
2013-08-23 04:52:00,66.0,61.0,29.87,North,0,0.0,-999.0,82,0.04,,,-99.99,,2013-08-23 11:52:00,
2013-08-23 05:22:00,66.0,61.0,29.87,North,0,0.0,-999.0,82,-99.99,,,-99.99,,2013-08-23 12:22:00,
2013-08-23 05:31:00,66.0,61.0,29.87,North,0,0.0,-999.0,82,-99.99,,,-99.99,,2013-08-23 12:31:00,
2013-08-23 05:52:00,66.0,59.0,29.86,WNW,300,8.0,-999.0,77,-99.99,,,-99.99,,2013-08-23 12:52:00,
2013-08-23 06:22:00,64.0,61.0,29.86,North,0,0.0,-999.0,88,-99.99,,,-99.99,,2013-08-23 13:22:00,
2013-08-23 06:32:00,64.0,61.0,29.86,North,0,0.0,-999.0,88,-99.99,,,-99.99,,2013-08-23 13:32:00,
2013-08-23 06:52:00,64.0,61.0,29.85,North,0,0.0,-999.0,88,-99.99,,,-99.99,,2013-08-23 13:52:00,
2013-08-23 07:21:00,64.0,61.0,29.85,North,0,0.0,-999.0,88,-99.99,,,-99.99,,2013-08-23 14:21:00,
2013-08-23 07:32:00,64.0,61.0,29.85,North,0,0.0,-999.0,88,-99.99,,,-99.99,,2013-08-23 14:32:00,
2013-08-23 07:52:00,66.0,59.0,29.86,WNW,300,6.0,-999.0,77,-99.99,,,-99.99,,2013-08-23 14:52:00,
2013-08-23 08:22:00,64.0,61.0,29.87,West,270,5.0,-999.0,88,-99.99,,,-99.99,,2013-08-23 15:22:00,
2013-08-23 08:33:00,64.0,61.0,29.87,West,270,5.0,-999.0,88,-99.99,,,-99.99,,2013-08-23 15:33:00,
2013-08-23 08:54:00,66.0,59.0,29.87,WNW,300,9.0,-999.0,77,-99.99,,,-99.99,,2013-08-23 15:54:00,
2013-08-23 09:24:00,66.0,59.0,29.88,WNW,290,13.0,21.0,77,-99.99,,,-99.99,,2013-08-23 16:24:00,
2013-08-23 09:34:00,66.0,59.0,29.88,WNW,290,13.0,21.0,77,-99.99,,,-99.99,,2013-08-23 16:34:00,
2013-08-23 09:53:00,64.0,57.0,29.89,WNW,300,13.0,24.0,77,-99.99,,,-99.99,,2013-08-23 16:53:00,
2013-08-23 10:23:00,66.0,57.0,29.90,WNW,290,14.0,24.0,72,-99.99,,,-99.99,,2013-08-23 17:23:00,
2013-08-23 10:34:00,66.0,57.0,29.90,WNW,290,14.0,24.0,72,-99.99,,,-99.99,,2013-08-23 17:34:00,
2013-08-23 10:53:00,66.0,57.0,29.89,WNW,290,14.0,22.0,72,-99.99,,,-99.99,,2013-08-23 17:53:00,
2013-08-23 11:22:00,70.0,57.0,29.89,WNW,300,12.0,21.0,64,-99.99,,,-99.99,,2013-08-23 18:22:00,
2013-08-23 11:32:00,70.0,57.0,29.89,WNW,300,12.0,21.0,64,-99.99,,,-99.99,,2013-08-23 18:32:00,
2013-08-23 11:52:00,70.0,57.0,29.90,NW,320,10.0,21.0,64,-99.99,,,-99.99,,2013-08-23 18:52:00,
2013-08-23 12:22:00,72.0,57.0,29.88,WNW,290,12.0,21.0,60,-99.99,,,-99.99,,2013-08-23 19:22:00,
2013-08-23 12:32:00,72.0,57.0,29.88,WNW,290,12.0,21.0,60,-99.99,,,-99.99,,2013-08-23 19:32:00,
2013-08-23 12:52:00,72.0,57.0,29.88,WNW,300,12.0,24.0,60,-99.99,,,-99.99,,2013-08-23 19:52:00,
2013-08-23 13:52:00,72.0,57.0,29.87,WNW,290,15.0,27.0,60,-99.99,,,-99.99,,2013-08-23 20:52:00,
2013-08-23 14:21:00,72.0,57.0,29.87,WNW,290,14.0,27.0,60,-99.99,,,-99.99,,2013-08-23 21:21:00,
2013-08-23 14:34:00,72.0,57.0,29.87,WNW,290,14.0,27.0,60,-99.99,,,-99.99,,2013-08-23 21:34:00,
2013-08-23 14:54:00,72.0,57.0,29.87,WNW,290,14.0,27.0,60,-99.99,,,-99.99,,2013-08-23 21:54:00,
2013-08-23 15:24:00,72.0,55.0,29.87,NW,310,21.0,32.0,56,-99.99,,,-99.99,,2013-08-23 22:24:00,
2013-08-23 15:33:00,72.0,55.0,29.87,NW,310,21.0,32.0,56,-99.99,,,-99.99,,2013-08-23 22:33:00,
2013-08-23 15:53:00,72.0,55.0,29.86,WNW,300,16.0,27.0,56,-99.99,,,-99.99,,2013-08-23 22:53:00,
2013-08-23 16:22:00,73.0,55.0,29.86,WNW,300,16.0,25.0,53,-99.99,,,-99.99,,2013-08-23 23:22:00,
2013-08-23 16:33:00,73.0,55.0,29.86,WNW,300,16.0,25.0,53,-99.99,,,-99.99,,2013-08-23 23:33:00,
2013-08-23 16:54:00,73.0,55.0,29.85,WNW,290,18.0,28.0,53,-99.99,,,-99.99,,2013-08-23 23:54:00,
2013-08-23 17:21:00,73.0,54.0,29.85,NW,310,17.0,24.0,49,-99.99,,,-99.99,,2013-08-24 00:21:00,
2013-08-23 17:32:00,73.0,54.0,29.85,NW,310,17.0,24.0,49,-99.99,,,-99.99,,2013-08-24 00:32:00,
2013-08-23 17:53:00,73.0,54.0,29.85,NW,310,18.0,25.0,49,-99.99,,,-99.99,,2013-08-24 00:53:00,
2013-08-23 18:22:00,73.0,52.0,29.84,NW,310,17.0,24.0,46,-99.99,,,-99.99,,2013-08-24 01:22:00,
2013-08-23 18:32:00,73.0,52.0,29.84,NW,310,17.0,24.0,46,-99.99,,,-99.99,,2013-08-24 01:32:00,
2013-08-23 18:53:00,72.0,54.0,29.85,NW,310,15.0,24.0,53,-99.99,,,-99.99,,2013-08-24 01:53:00,
2013-08-23 19:22:00,70.0,54.0,29.84,NW,310,15.0,18.0,56,-99.99,,,-99.99,,2013-08-24 02:22:00,
2013-08-23 19:32:00,70.0,54.0,29.84,NW,310,15.0,18.0,56,-99.99,,,-99.99,,2013-08-24 02:32:00,
2013-08-23 19:52:00,70.0,54.0,29.84,NW,310,15.0,23.0,56,-99.99,,,-99.99,,2013-08-24 02:52:00,
2013-08-23 20:22:00,68.0,54.0,29.84,NW,310,10.0,-999.0,60,-99.99,,,-99.99,,2013-08-24 03:22:00,
2013-08-23 20:34:00,68.0,54.0,29.84,NW,310,10.0,-999.0,60,-99.99,,,-99.99,,2013-08-24 03:34:00,
2013-08-23 20:54:00,68.0,54.0,29.84,WNW,300,6.0,-999.0,60,-99.99,,,-99.99,,2013-08-24 03:54:00,
2013-08-23 21:24:00,66.0,54.0,29.85,North,0,0.0,-999.0,63,-99.99,,,-99.99,,2013-08-24 04:24:00,
2013-08-23 21:34:00,66.0,54.0,29.85,North,0,0.0,-999.0,63,-99.99,,,-99.99,,2013-08-24 04:34:00,
2013-08-23 21:53:00,64.0,55.0,29.86,North,0,0.0,-999.0,72,-99.99,,,-99.99,,2013-08-24 04:53:00,
2013-08-23 22:23:00,61.0,54.0,29.86,North,0,0.0,-999.0,77,-99.99,,,-99.99,,2013-08-24 05:23:00,
2013-08-23 22:33:00,61.0,54.0,29.86,North,0,0.0,-999.0,77,-99.99,,,-99.99,,2013-08-24 05:33:00,
2013-08-23 22:53:00,61.0,54.0,29.87,North,0,0.0,-999.0,77,-99.99,,,-99.99,,2013-08-24 05:53:00,
2013-08-23 23:22:00,61.0,54.0,29.87,North,0,0.0,-999.0,77,-99.99,,,-99.99,,2013-08-24 06:22:00,
2013-08-23 23:32:00,61.0,54.0,29.87,North,0,0.0,-999.0,77,-99.99,,,-99.99,,2013-08-24 06:32:00,
2013-08-23 23:52:00,61.0,54.0,29.87,North,0,0.0,-999.0,77,-99.99,,,-99.99,,2013-08-24 06:52:00,